Time;durP1;ratioP1;P1;durP2;ratioP2;P2;SDS_P1;SDS_P2;PMS_P1;PMS_P2;Temp;Humidity;BMP_temperature;BMP_pressure;BME280_temperature;BME280_humidity;BME280_pressure;Samples;Min_cycle;Max_cycle;Signal;HPM_P1;HPM_P2
2023/04/17 00:00:42;;;;;;;30.33;21.55;;;;;;;10.38;78.37;102324.28;3619757;39;20050;-66
2023/04/17 00:03:10;;;;;;;28.10;21.20;;;;;;;10.32;78.18;102316.44;3617114;39;20095;-66
2023/04/17 00:05:37;;;;;;;27.70;21.17;;;;;;;10.39;78.49;102326.03;3604536;39;20123;-66
2023/04/17 00:08:03;;;;;;;29.70;20.70;;;;;;;10.39;78.16;102323.34;3616970;39;20054;-66
2023/04/17 00:10:29;;;;;;;30.77;21.63;;;;;;;10.39;78.33;102317.97;3615280;39;20069;-66
2023/04/17 00:12:54;;;;;;;27.80;21.42;;;;;;;10.38;78.29;102318.91;3614296;39;20055;-66
2023/04/17 00:15:20;;;;;;;27.60;20.60;;;;;;;9.84;78.18;102223.25;3617567;39;20073;-66
2023/04/17 00:17:46;;;;;;;28.85;20.13;;;;;;;10.39;78.58;102323.34;3617897;39;20278;-66
2023/04/17 00:20:12;;;;;;;27.70;20.17;;;;;;;10.38;78.61;102316.22;3605468;39;20058;-66
2023/04/17 00:22:38;;;;;;;28.42;21.98;;;;;;;10.41;78.65;102320.63;3619058;39;20102;-66
2023/04/17 00:25:04;;;;;;;32.25;21.15;;;;;;;10.30;78.07;102301.31;3618226;39;20046;-66
2023/04/17 00:27:30;;;;;;;33.13;22.67;;;;;;;10.39;78.93;102311.72;3619902;39;20104;-66
2023/04/17 00:29:56;;;;;;;30.92;21.50;;;;;;;10.33;78.38;102296.69;3619474;39;20055;-66
2023/04/17 00:32:21;;;;;;;31.73;22.38;;;;;;;10.36;78.78;102312.72;3619322;39;20133;-66
2023/04/17 00:34:49;;;;;;;29.63;22.08;;;;;;;10.33;78.83;102304.75;3619903;39;20058;-66
2023/04/17 00:37:15;;;;;;;35.70;22.25;;;;;;;10.38;78.33;102304.59;3619377;39;20370;-66
2023/04/17 00:39:41;;;;;;;33.30;23.33;;;;;;;10.37;78.01;102303.72;3622442;39;20051;-66
2023/04/17 00:42:07;;;;;;;28.48;21.33;;;;;;;10.34;78.25;102300.25;3617554;39;20354;-66
2023/04/17 00:44:33;;;;;;;31.73;21.35;;;;;;;10.33;78.63;102293.13;3620035;39;20070;-66
2023/04/17 00:46:59;;;;;;;27.58;20.50;;;;;;;10.22;78.58;102278.25;3617952;39;20054;-65
2023/04/17 00:49:28;;;;;;;30.67;22.13;;;;;;;10.23;78.69;102296.13;3621150;39;20349;-66
2023/04/17 00:51:54;;;;;;;30.73;21.45;;;;;;;10.28;77.96;102293.31;3619374;39;20054;-66
2023/04/17 00:54:24;;;;;;;28.35;21.02;;;;;;;10.23;78.57;102292.56;3615517;39;20062;-66
2023/04/17 00:56:55;;;;;;;29.38;21.10;;;;;;;10.25;78.58;102293.41;3621178;39;20046;-66
2023/04/17 00:59:22;;;;;;;27.77;21.13;;;;;;;10.26;78.41;102300.56;3613807;39;20070;-65
2023/04/17 01:01:48;;;;;;;29.30;21.27;;;;;;;10.26;78.44;102283.53;3614581;39;20452;-66
2023/04/17 01:04:13;;;;;;;30.60;21.38;;;;;;;10.31;77.84;102292.34;3613768;39;20055;-65
2023/04/17 01:06:39;;;;;;;29.88;21.17;;;;;;;10.29;78.12;102287.00;3617397;39;20074;-66
2023/04/17 01:09:05;;;;;;;32.63;21.27;;;;;;;10.29;78.11;102288.81;3615781;39;20407;-66
2023/04/17 01:11:31;;;;;;;27.95;19.30;;;;;;;10.30;77.99;102295.94;3604175;39;20369;-66
2023/04/17 01:13:56;;;;;;;32.88;20.95;;;;;;;9.65;77.94;102181.88;3616022;39;20050;-66
2023/04/17 01:16:22;;;;;;;29.45;21.60;;;;;;;10.30;77.37;102296.81;3616014;39;20055;-66
2023/04/17 01:18:48;;;;;;;27.95;20.77;;;;;;;10.22;77.42;102288.13;3614231;39;20055;-66
2023/04/17 01:21:14;;;;;;;28.85;21.15;;;;;;;10.29;78.31;102300.44;3619032;39;20050;-66
2023/04/17 01:23:51;;;;;;;29.02;20.85;;;;;;;10.28;78.22;102304.06;3604209;39;20383;-66
2023/04/17 01:26:21;;;;;;;28.45;21.27;;;;;;;10.27;77.77;102296.91;3618754;39;20116;-66
2023/04/17 01:28:53;;;;;;;28.17;21.17;;;;;;;10.27;77.77;102299.59;3615335;39;20051;-66
2023/04/17 01:31:19;;;;;;;27.50;20.42;;;;;;;9.65;77.54;102200.69;3619341;39;20058;-66
2023/04/17 01:33:46;;;;;;;25.35;19.92;;;;;;;10.23;77.38;102306.00;3616397;39;20402;-66
2023/04/17 01:36:12;;;;;;;29.05;20.92;;;;;;;10.21;78.04;102299.78;3604920;39;20318;-66
2023/04/17 01:38:38;;;;;;;28.38;20.33;;;;;;;10.17;77.15;102299.03;3613912;39;20054;-66
2023/04/17 01:41:08;;;;;;;29.73;20.10;;;;;;;10.19;77.00;102304.38;3613675;39;20073;-66
2023/04/17 01:43:41;;;;;;;26.30;19.35;;;;;;;10.18;77.62;102299.91;3613337;39;20055;-66
2023/04/17 01:46:06;;;;;;;26.42;20.38;;;;;;;10.09;77.42;102284.16;3613186;39;20054;-66
2023/04/17 01:48:33;;;;;;;26.20;19.92;;;;;;;10.17;77.41;102307.09;3615409;39;20075;-66
2023/04/17 01:50:59;;;;;;;25.10;18.70;;;;;;;10.18;77.48;102308.88;3603763;39;20385;-66
2023/04/17 01:53:26;;;;;;;24.23;19.05;;;;;;;9.43;76.63;102168.34;3615698;39;20047;-68
2023/04/17 01:55:51;;;;;;;24.02;18.48;;;;;;;9.81;76.96;102235.91;3618284;39;20046;-67
2023/04/17 01:58:17;;;;;;;25.77;18.98;;;;;;;9.45;76.99;102182.56;3613731;39;20697;-66
2023/04/17 02:00:46;;;;;;;23.42;18.17;;;;;;;10.13;76.90;102299.22;3617382;39;20046;-67
2023/04/17 02:03:11;;;;;;;26.67;19.83;;;;;;;10.11;76.94;102303.75;3619520;39;20358;-67
2023/04/17 02:05:37;;;;;;;27.10;19.55;;;;;;;9.66;77.19;102218.53;3617593;39;20065;-66
2023/04/17 02:08:03;;;;;;;28.35;19.00;;;;;;;10.17;76.98;102306.22;3614389;39;20053;-66
2023/04/17 02:10:29;;;;;;;28.33;20.63;;;;;;;9.41;77.66;102176.44;3617204;39;20073;-66
2023/04/17 02:12:55;;;;;;;27.83;19.63;;;;;;;10.17;77.78;102306.22;3615450;39;20463;-67
2023/04/17 02:15:20;;;;;;;27.15;20.52;;;;;;;10.15;77.22;102308.97;3602829;39;20070;-67
2023/04/17 02:17:46;;;;;;;27.67;20.95;;;;;;;10.13;77.64;102299.22;3607447;39;20058;-67
2023/04/17 02:20:12;;;;;;;24.50;19.40;;;;;;;10.14;76.76;102301.84;3617275;39;20086;-66
2023/04/17 02:22:38;;;;;;;27.40;18.88;;;;;;;10.11;76.68;102303.75;3617005;39;20512;-67
2023/04/17 02:25:04;;;;;;;25.25;18.02;;;;;;;9.01;76.12;102121.50;3612696;39;20050;-66
2023/04/17 02:27:30;;;;;;;27.35;18.65;;;;;;;10.02;75.99;102296.03;3613581;39;20166;-67
2023/04/17 02:29:55;;;;;;;24.58;18.10;;;;;;;10.07;76.03;102300.31;3608513;39;20039;-67
2023/04/17 02:32:21;;;;;;;25.58;17.92;;;;;;;10.06;76.55;102300.38;3612569;39;20069;-67
2023/04/17 02:34:46;;;;;;;28.58;18.23;;;;;;;10.05;76.22;102298.59;3613115;39;20114;-66
2023/04/17 02:37:12;;;;;;;25.30;18.42;;;;;;;10.03;76.09;102298.69;3615409;39;20453;-67
2023/04/17 02:39:38;;;;;;;25.85;18.85;;;;;;;10.04;76.49;102299.53;3619106;39;20059;-67
2023/04/17 02:42:03;;;;;;;26.02;19.38;;;;;;;10.05;76.95;102298.59;3618259;39;20057;-67
2023/04/17 02:44:29;;;;;;;26.50;18.45;;;;;;;10.05;76.66;102301.28;3613916;39;20061;-67
2023/04/17 02:46:54;;;;;;;25.23;19.38;;;;;;;10.05;76.71;102302.16;3604615;39;20069;-67
2023/04/17 02:49:20;;;;;;;24.40;18.77;;;;;;;10.04;76.43;102299.53;3617347;39;20047;-67
2023/04/17 02:51:46;;;;;;;28.52;19.85;;;;;;;9.00;76.75;102125.09;3620008;39;20039;-66
2023/04/17 02:54:12;;;;;;;27.85;20.63;;;;;;;10.01;77.56;102305.91;3616342;39;20062;-67
2023/04/17 02:56:38;;;;;;;28.30;20.67;;;;;;;9.98;76.73;102312.25;3613901;39;20058;-67
2023/04/17 02:59:03;;;;;;;30.55;21.05;;;;;;;9.96;77.17;102308.75;3616113;39;20046;-66
2023/04/17 03:01:29;;;;;;;28.13;21.02;;;;;;;9.96;77.72;102308.75;3615750;39;20389;-66
2023/04/17 03:03:55;;;;;;;28.20;20.55;;;;;;;9.93;77.91;102300.81;3615766;39;20058;-66
2023/04/17 03:06:22;;;;;;;29.60;21.67;;;;;;;9.72;77.98;102266.66;3616784;39;20462;-66
2023/04/17 03:08:48;;;;;;;31.88;21.58;;;;;;;9.95;78.01;102301.63;3617430;39;20046;-66
2023/04/17 03:11:14;;;;;;;31.85;22.13;;;;;;;9.93;77.62;102308.88;3618063;39;20062;-67
2023/04/17 03:13:40;;;;;;;31.10;23.00;;;;;;;9.92;78.53;102309.78;3615813;39;20308;-66
2023/04/17 03:16:06;;;;;;;30.00;21.77;;;;;;;9.89;78.56;102309.88;3617695;39;20039;-66
2023/04/17 03:18:37;;;;;;;34.85;23.17;;;;;;;9.87;79.26;102306.41;3605659;39;20057;-66
2023/04/17 03:21:03;;;;;;;29.73;22.00;;;;;;;9.86;79.12;102312.69;3608637;39;20302;-65
2023/04/17 03:23:29;;;;;;;32.50;23.40;;;;;;;9.89;78.91;102312.56;3613858;39;20054;-66
2023/04/17 03:25:54;;;;;;;34.40;23.50;;;;;;;9.91;79.18;102318.78;3608435;39;20345;-66
2023/04/17 03:28:21;;;;;;;33.53;23.27;;;;;;;9.18;78.71;102189.81;3614379;39;20066;-66
2023/04/17 03:30:46;;;;;;;36.33;23.48;;;;;;;9.89;78.52;102304.53;3618105;39;20388;-66
2023/04/17 03:33:12;;;;;;;32.85;22.75;;;;;;;9.18;79.07;102189.81;3614903;39;20058;-66
2023/04/17 03:35:37;;;;;;;32.97;23.85;;;;;;;9.86;79.25;102298.38;3614053;39;20062;-66
2023/04/17 03:38:03;;;;;;;34.70;23.52;;;;;;;9.91;79.37;102310.72;3613728;39;20058;-66
2023/04/17 03:40:29;;;;;;;33.60;23.27;;;;;;;9.92;79.57;102307.09;3617288;39;20043;-66
2023/04/17 03:42:54;;;;;;;34.65;23.52;;;;;;;9.93;79.29;102314.25;3616264;39;20111;-66
2023/04/17 03:45:20;;;;;;;36.00;23.63;;;;;;;9.92;79.34;102300.84;3619448;39;20070;-66
2023/04/17 03:47:46;;;;;;;34.50;23.73;;;;;;;9.91;78.76;102313.41;3617208;39;20058;-66
2023/04/17 03:50:12;;;;;;;32.47;23.67;;;;;;;9.87;78.91;102313.59;3614869;39;20054;-66
2023/04/17 03:52:37;;;;;;;34.58;24.65;;;;;;;9.85;79.25;102310.06;3605949;39;20055;-66
2023/04/17 03:55:04;;;;;;;31.73;23.17;;;;;;;9.85;80.10;102304.69;3614268;39;20050;-66
2023/04/17 03:57:29;;;;;;;34.30;23.75;;;;;;;9.87;79.13;102306.41;3617445;39;20063;-66
2023/04/17 03:59:55;;;;;;;33.20;23.15;;;;;;;9.85;80.36;102310.06;3613833;39;20427;-66
2023/04/17 04:02:21;;;;;;;30.60;23.25;;;;;;;9.84;79.36;102308.31;3607777;39;20051;-66
2023/04/17 04:04:49;;;;;;;32.15;23.45;;;;;;;9.80;79.23;102306.66;3617009;39;20078;-66
2023/04/17 04:07:15;;;;;;;31.83;23.40;;;;;;;9.72;79.46;102297.06;3617325;39;20039;-66
2023/04/17 04:09:41;;;;;;;35.40;24.63;;;;;;;9.77;79.94;102307.66;3617913;39;20042;-67
2023/04/17 04:12:07;;;;;;;36.42;25.15;;;;;;;9.74;79.70;102307.75;3616836;39;20143;-66
2023/04/17 04:14:33;;;;;;;32.55;23.77;;;;;;;9.67;79.98;102300.81;3614833;39;20058;-66
2023/04/17 04:16:59;;;;;;;36.35;25.25;;;;;;;9.65;79.74;102300.03;3621058;39;20058;-66
2023/04/17 04:19:24;;;;;;;33.13;24.70;;;;;;;9.31;80.57;102239.44;3618678;39;20058;-65
2023/04/17 04:21:52;;;;;;;30.50;23.08;;;;;;;9.58;79.88;102291.31;3617753;39;20050;-65
2023/04/17 04:24:19;;;;;;;33.38;24.10;;;;;;;9.21;80.08;102227.25;3611372;39;20059;-65
2023/04/17 04:26:48;;;;;;;35.08;23.63;;;;;;;9.07;80.57;102211.63;3619380;39;20050;-65
2023/04/17 04:29:15;;;;;;;33.40;24.17;;;;;;;9.67;80.61;102315.16;3618210;39;20050;-65
2023/04/17 04:31:41;;;;;;;34.72;24.17;;;;;;;9.66;80.97;102310.69;3614630;39;20310;-66
2023/04/17 04:34:08;;;;;;;34.50;23.92;;;;;;;8.94;80.94;102183.44;3615821;39;20397;-65
2023/04/17 04:36:40;;;;;;;34.97;24.35;;;;;;;9.68;81.30;102324.09;3616168;39;20051;-65
2023/04/17 04:39:06;;;;;;;33.60;24.20;;;;;;;9.66;81.15;102309.81;3618463;39;20127;-66
2023/04/17 04:41:33;;;;;;;37.60;25.50;;;;;;;9.64;81.31;102317.94;3616965;39;20061;-66
2023/04/17 04:44:02;;;;;;;35.70;23.75;;;;;;;8.93;81.02;102187.06;3618324;39;20062;-66
2023/04/17 04:46:27;;;;;;;35.40;24.17;;;;;;;9.68;80.57;102329.44;3614551;39;20043;-65
2023/04/17 04:48:53;;;;;;;37.83;24.95;;;;;;;9.68;80.83;102330.31;3615638;39;20385;-66
2023/04/17 04:51:19;;;;;;;33.65;23.67;;;;;;;9.66;81.23;102331.31;3614101;39;21174;-65
2023/04/17 04:53:45;;;;;;;36.03;24.33;;;;;;;9.66;80.80;102331.31;3617162;39;20399;-65
2023/04/17 04:56:10;;;;;;;38.15;25.02;;;;;;;9.64;80.74;102325.09;3615745;39;20057;-65
2023/04/17 04:58:37;;;;;;;36.55;25.08;;;;;;;9.61;81.12;102330.56;3615750;39;20061;-66
2023/04/17 05:01:04;;;;;;;37.35;25.40;;;;;;;8.89;81.54;102218.47;3614073;39;20047;-65
2023/04/17 05:03:30;;;;;;;35.78;25.13;;;;;;;9.54;81.46;102330.78;3617956;39;20054;-65
2023/04/17 05:05:56;;;;;;;35.25;24.50;;;;;;;9.54;82.11;102327.22;3615050;39;20054;-65
2023/04/17 05:08:21;;;;;;;37.72;24.98;;;;;;;9.54;82.15;102336.13;3615346;39;20047;-65
2023/04/17 05:10:47;;;;;;;36.78;24.98;;;;;;;9.53;82.44;102330.84;3616553;39;20741;-66
2023/04/17 05:13:13;;;;;;;34.90;25.17;;;;;;;9.56;81.88;102335.22;3603834;39;20385;-66
2023/04/17 05:15:40;;;;;;;37.50;25.33;;;;;;;9.55;82.48;102347.78;3613449;39;20051;-66
2023/04/17 05:18:06;;;;;;;38.85;26.25;;;;;;;9.54;82.36;102338.81;3615608;39;20085;-66
2023/04/17 05:20:31;;;;;;;38.85;25.50;;;;;;;9.53;82.02;102350.50;3605901;39;20050;-65
2023/04/17 05:22:57;;;;;;;33.58;24.38;;;;;;;9.53;82.02;102347.81;3615710;39;20062;-65
2023/04/17 05:25:23;;;;;;;40.83;26.67;;;;;;;9.37;82.47;102330.47;3616927;39;20054;-66
2023/04/17 05:27:49;;;;;;;37.28;26.20;;;;;;;9.49;82.09;102342.63;3615180;39;20059;-66
2023/04/17 05:30:15;;;;;;;39.70;27.05;;;;;;;9.58;82.70;102357.50;3614581;39;20127;-66
2023/04/17 05:32:41;;;;;;;38.65;26.90;;;;;;;9.57;82.88;102353.09;3617905;39;20057;-66
2023/04/17 05:35:07;;;;;;;37.10;25.80;;;;;;;9.60;82.74;102352.97;3621325;39;20062;-66
2023/04/17 05:37:32;;;;;;;36.25;25.92;;;;;;;8.85;81.95;102227.56;3614651;39;20047;-65
2023/04/17 05:40:00;;;;;;;39.25;26.85;;;;;;;9.13;81.40;102272.22;3619700;39;20053;-65
2023/04/17 05:42:25;;;;;;;38.35;26.02;;;;;;;8.95;82.84;102242.41;3606805;39;20054;-68
2023/04/17 05:44:51;;;;;;;38.15;25.50;;;;;;;9.61;82.09;102349.34;3618103;39;20056;-65
2023/04/17 05:47:17;;;;;;;39.95;27.52;;;;;;;9.58;82.38;102355.75;3622557;39;20427;-65
2023/04/17 05:49:43;;;;;;;38.88;26.45;;;;;;;9.58;81.98;102361.09;3616335;39;20063;-67
2023/04/17 05:52:09;;;;;;;41.33;27.92;;;;;;;9.03;82.01;102272.53;3613076;39;20092;-65
2023/04/17 05:54:35;;;;;;;36.30;26.48;;;;;;;8.84;82.26;102231.13;3611741;39;20393;-65
2023/04/17 05:57:02;;;;;;;39.50;25.13;;;;;;;9.61;82.43;102362.78;3616537;39;20100;-66
2023/04/17 05:59:27;;;;;;;38.63;27.63;;;;;;;9.62;81.87;102367.25;3620249;39;20051;-66
2023/04/17 06:01:53;;;;;;;38.50;26.02;;;;;;;9.54;82.32;102360.31;3617932;39;20381;-65
2023/04/17 06:04:18;;;;;;;39.13;27.27;;;;;;;9.63;82.16;102364.50;3617044;39;20309;-66
2023/04/17 06:06:44;;;;;;;38.83;26.77;;;;;;;9.64;82.98;102362.69;3614960;39;20066;-66
2023/04/17 06:09:10;;;;;;;39.28;26.75;;;;;;;9.64;82.09;102377.00;3621572;39;20066;-65
2023/04/17 06:11:36;;;;;;;39.45;27.33;;;;;;;9.66;82.13;102374.25;3617396;39;20212;-68
2023/04/17 06:14:01;;;;;;;39.47;26.77;;;;;;;9.68;82.66;102375.09;3619248;39;20055;-66
2023/04/17 06:16:27;;;;;;;39.33;26.75;;;;;;;9.67;82.02;102376.00;3617196;39;20051;-66
2023/04/17 06:18:53;;;;;;;40.80;27.65;;;;;;;9.66;81.68;102379.63;3616350;39;20058;-65
2023/04/17 06:21:18;;;;;;;39.92;27.52;;;;;;;9.66;82.49;102377.81;3622598;39;20385;-65
2023/04/17 06:23:44;;;;;;;42.50;28.10;;;;;;;9.61;81.84;102379.81;3621834;39;20070;-66
2023/04/17 06:26:11;;;;;;;40.30;26.60;;;;;;;9.63;82.04;102385.09;3619850;39;20061;-66
2023/04/17 06:28:36;;;;;;;42.05;29.10;;;;;;;9.64;82.03;102381.47;3613488;39;20361;-65
2023/04/17 06:31:02;;;;;;;43.80;29.50;;;;;;;9.65;82.28;102380.56;3621404;39;20079;-66
2023/04/17 06:33:28;;;;;;;41.97;29.05;;;;;;;9.67;82.55;102393.03;3614058;39;20062;-65
2023/04/17 06:35:53;;;;;;;44.50;30.17;;;;;;;9.68;82.04;102393.91;3615085;39;20050;-66
2023/04/17 06:38:19;;;;;;;41.40;28.70;;;;;;;9.70;81.87;102392.88;3617077;39;20074;-65
2023/04/17 06:40:45;;;;;;;39.95;28.05;;;;;;;9.62;82.16;102378.00;3614400;39;21591;-66
2023/04/17 06:43:11;;;;;;;39.17;28.50;;;;;;;9.74;81.71;102394.56;3614578;39;20063;-66
2023/04/17 06:45:36;;;;;;;40.30;28.25;;;;;;;9.71;81.98;102391.09;3613713;39;20069;-66
2023/04/17 06:48:02;;;;;;;42.67;29.33;;;;;;;9.81;82.38;102389.88;3618332;39;20582;-66
2023/04/17 06:50:28;;;;;;;41.90;29.23;;;;;;;9.82;81.24;102396.13;3608031;39;20648;-66
2023/04/17 06:52:53;;;;;;;42.63;28.90;;;;;;;9.86;81.12;102397.75;3615753;39;20343;-66
2023/04/17 06:55:19;;;;;;;38.20;27.58;;;;;;;9.84;80.99;102400.50;3619618;39;20097;-66
2023/04/17 06:57:45;;;;;;;44.75;29.80;;;;;;;9.82;81.12;102407.72;3615114;39;20058;-66
2023/04/17 07:00:11;;;;;;;40.67;28.20;;;;;;;9.87;81.87;102405.78;3612705;39;21421;-66
2023/04/17 07:02:37;;;;;;;42.42;28.92;;;;;;;9.86;81.18;102404.00;3614780;39;20409;-66
2023/04/17 07:05:06;;;;;;;42.42;29.42;;;;;;;9.89;80.95;102409.28;3614994;39;20066;-67
2023/04/17 07:07:33;;;;;;;38.90;28.30;;;;;;;9.24;80.76;102291.56;3615651;39;20054;-66
2023/04/17 07:09:59;;;;;;;42.53;29.10;;;;;;;9.91;80.65;102422.66;3617188;39;20067;-66
2023/04/17 07:12:25;;;;;;;40.15;27.48;;;;;;;9.92;81.31;102422.59;3616469;39;20062;-66
2023/04/17 07:14:51;;;;;;;42.95;28.40;;;;;;;9.91;81.03;102423.53;3614137;39;20047;-66
2023/04/17 07:17:17;;;;;;;42.83;29.10;;;;;;;9.94;81.61;102422.56;3619431;39;20073;-68
2023/04/17 07:19:42;;;;;;;41.08;27.73;;;;;;;9.94;80.70;102420.75;3617911;39;20101;-66
2023/04/17 07:22:08;;;;;;;43.00;28.90;;;;;;;9.93;80.47;102419.00;3615988;39;20050;-66
2023/04/17 07:24:34;;;;;;;44.42;29.15;;;;;;;9.95;80.80;102427.88;3618935;39;20050;-66
2023/04/17 07:27:02;;;;;;;45.10;29.08;;;;;;;9.93;80.06;102432.44;3615430;39;20081;-66
2023/04/17 07:29:28;;;;;;;45.22;28.95;;;;;;;9.91;80.94;102431.59;3617374;39;20398;-66
2023/04/17 07:31:54;;;;;;;42.45;28.45;;;;;;;9.93;80.27;102437.81;3621511;39;20054;-67
2023/04/17 07:34:20;;;;;;;40.35;28.42;;;;;;;9.96;81.15;102443.09;3617616;39;20394;-66
2023/04/17 07:36:48;;;;;;;44.20;29.00;;;;;;;10.01;80.65;102440.22;3608431;39;20062;-66
2023/04/17 07:39:14;;;;;;;41.40;28.30;;;;;;;9.63;80.13;102367.19;3617852;39;20043;-66
2023/04/17 07:41:39;;;;;;;39.22;27.75;;;;;;;10.13;79.54;102436.25;3604879;39;20057;-66
2023/04/17 07:44:05;;;;;;;40.63;28.10;;;;;;;10.21;79.34;102436.84;3614218;39;20422;-66
2023/04/17 07:46:31;;;;;;;39.80;27.38;;;;;;;10.29;79.24;102436.63;3614431;39;20054;-66
2023/04/17 07:48:58;;;;;;;41.13;28.80;;;;;;;10.28;78.55;102438.47;3616126;39;20062;-66
2023/04/17 07:51:23;;;;;;;38.75;27.73;;;;;;;10.29;78.03;102433.94;3617054;39;20217;-66
2023/04/17 07:53:49;;;;;;;37.38;28.00;;;;;;;10.36;78.78;102440.88;3613020;39;20043;-66
2023/04/17 07:56:16;;;;;;;40.67;29.33;;;;;;;10.44;78.13;102438.78;3614410;39;20300;-66
2023/04/17 07:58:44;;;;;;;39.55;26.65;;;;;;;10.54;77.80;102444.72;3614381;39;20063;-66
2023/04/17 08:01:10;;;;;;;39.65;27.60;;;;;;;10.57;77.01;102445.50;3614286;39;20117;-66
2023/04/17 08:03:39;;;;;;;36.80;26.23;;;;;;;9.90;77.16;102326.91;3614206;39;20047;-66
2023/04/17 08:06:05;;;;;;;37.00;27.35;;;;;;;10.64;77.12;102451.53;3615327;39;20387;-66
2023/04/17 08:08:30;;;;;;;37.28;26.88;;;;;;;10.74;76.47;102447.56;3614162;39;20051;-66
2023/04/17 08:10:56;;;;;;;36.67;27.88;;;;;;;10.82;76.62;102450.84;3614487;39;20261;-66
2023/04/17 08:13:21;;;;;;;38.40;28.20;;;;;;;10.93;75.82;102454.00;3613826;39;20047;-66
2023/04/17 08:15:47;;;;;;;37.65;27.50;;;;;;;10.40;75.13;102349.31;3607436;39;20094;-66
2023/04/17 08:18:13;;;;;;;38.58;28.45;;;;;;;11.07;74.41;102449.94;3607650;39;20051;-66
2023/04/17 08:20:39;;;;;;;34.75;26.55;;;;;;;11.07;74.08;102449.94;3610007;39;20050;-66
2023/04/17 08:23:04;;;;;;;37.53;27.10;;;;;;;11.07;74.21;102453.50;3616489;39;20099;-66
2023/04/17 08:25:31;;;;;;;34.50;25.75;;;;;;;11.14;73.89;102465.78;3613555;39;20055;-66
2023/04/17 08:27:56;;;;;;;32.80;24.10;;;;;;;11.16;72.84;102460.34;3614853;39;20358;-66
2023/04/17 08:30:22;;;;;;;32.72;24.55;;;;;;;11.12;72.85;102442.56;3614703;39;20051;-65
2023/04/17 08:32:50;;;;;;;32.50;23.67;;;;;;;11.22;72.60;102454.72;3617609;39;20055;-66
2023/04/17 08:35:16;;;;;;;32.97;23.52;;;;;;;11.27;72.63;102457.25;3616257;39;20043;-65
2023/04/17 08:37:45;;;;;;;32.20;23.60;;;;;;;11.31;72.90;102457.06;3615802;39;20071;-67
2023/04/17 08:40:12;;;;;;;31.90;23.95;;;;;;;11.42;72.68;102461.13;3616424;39;20385;-66
2023/04/17 08:42:41;;;;;;;29.50;22.50;;;;;;;11.52;72.64;102462.56;3615367;39;20131;-66
2023/04/17 08:45:10;;;;;;;31.27;22.98;;;;;;;11.61;71.89;102470.28;3614460;39;20441;-66
2023/04/17 08:47:41;;;;;;;30.92;22.55;;;;;;;11.63;71.41;102461.16;3616338;39;20055;-66
2023/04/17 08:50:13;;;;;;;30.02;23.00;;;;;;;11.71;70.65;102466.28;3616217;39;20362;-66
2023/04/17 08:52:45;;;;;;;28.33;22.55;;;;;;;11.66;70.17;102460.19;3614332;39;20053;-66
2023/04/17 08:55:15;;;;;;;31.05;22.77;;;;;;;11.61;70.41;102464.88;3603100;39;20054;-66
2023/04/17 08:58:00;;;;;;;29.27;22.05;;;;;;;11.60;71.00;102461.28;3614037;39;20073;-66
2023/04/17 09:00:36;;;;;;;28.85;22.67;;;;;;;11.70;70.53;102456.41;3614287;39;20047;-66
2023/04/17 09:03:09;;;;;;;31.00;23.27;;;;;;;11.75;70.64;102465.19;3613292;39;20062;-66
2023/04/17 09:05:37;;;;;;;;;;;;;;;11.80;70.56;102463.22;3604293;39;20478;-66
2023/04/17 09:08:15;;;;;;;28.95;21.95;;;;;;;11.88;69.58;102460.22;3613760;39;19984;-66
2023/04/17 09:10:53;;;;;;;28.90;21.58;;;;;;;11.91;69.90;102465.47;3614006;39;20097;-66
2023/04/17 09:13:23;;;;;;;27.98;21.42;;;;;;;12.03;69.49;102474.88;3615982;39;20124;-68
2023/04/17 09:16:12;;;;;;;29.13;22.05;;;;;;;12.24;68.83;102455.13;3614711;39;20054;-65
2023/04/17 09:18:41;;;;;;;28.23;21.45;;;;;;;12.36;67.92;102451.00;3614121;39;20131;-67
2023/04/17 09:21:08;;;;;;;29.60;21.55;;;;;;;12.52;67.99;102467.38;3614062;39;20051;-67
2023/04/17 09:23:54;;;;;;;27.55;20.90;;;;;;;11.97;66.95;102343.94;3608408;39;20396;-66
2023/04/17 09:26:26;;;;;;;31.42;21.95;;;;;;;12.75;66.58;102464.56;3614656;39;20358;-66
2023/04/17 09:29:07;;;;;;;27.38;22.27;;;;;;;12.82;66.21;102472.38;3613783;39;20267;-66
2023/04/17 09:31:36;;;;;;;28.40;21.63;;;;;;;12.85;66.51;102469.56;3613642;39;20418;-66
2023/04/17 09:34:06;;;;;;;27.13;21.92;;;;;;;12.84;65.19;102463.25;3613675;39;20047;-66
2023/04/17 09:36:36;;;;;;;27.85;22.10;;;;;;;12.89;66.29;102465.75;3615582;39;20050;-66
2023/04/17 09:39:14;;;;;;;28.52;23.17;;;;;;;13.07;66.16;102459.53;3616190;39;20043;-66
2023/04/17 09:41:40;;;;;;;26.80;21.42;;;;;;;13.29;65.18;102459.44;3614396;39;20066;-67
2023/04/17 09:44:06;;;;;;;28.30;22.27;;;;;;;13.43;64.63;102451.53;3619347;39;20059;-67
2023/04/17 09:46:36;;;;;;;27.17;20.73;;;;;;;13.56;63.21;102461.75;3613510;39;20319;-66
2023/04/17 09:49:35;;;;;;;27.08;22.10;;;;;;;13.56;63.91;102448.25;3614605;39;20058;-66
2023/04/17 09:52:03;;;;;;;28.70;21.95;;;;;;;13.68;62.84;102459.34;3613773;39;20045;-66
2023/04/17 09:54:30;;;;;;;27.10;21.33;;;;;;;13.72;62.98;102456.50;3612927;39;20123;-66
2023/04/17 09:56:57;;;;;;;28.90;22.30;;;;;;;13.92;62.78;102454.56;3613843;39;20058;-66
2023/04/17 09:59:25;;;;;;;25.38;21.23;;;;;;;13.75;62.22;102413.09;3614000;39;20314;-66
2023/04/17 10:01:52;;;;;;;28.70;21.48;;;;;;;14.16;61.60;102468.66;3613310;39;20382;-67
2023/04/17 10:04:18;;;;;;;27.55;21.02;;;;;;;14.34;61.44;102444.34;3612963;39;20042;-67
2023/04/17 10:06:45;;;;;;;25.98;21.20;;;;;;;14.61;59.65;102461.84;3603532;39;20081;-67
2023/04/17 10:09:10;;;;;;;25.40;20.05;;;;;;;14.80;59.88;102458.19;3612526;39;20067;-67
2023/04/17 10:11:46;;;;;;;27.08;21.13;;;;;;;14.82;58.26;102459.84;3613982;39;20095;-68
2023/04/17 10:14:35;;;;;;;27.00;20.45;;;;;;;15.05;60.92;102444.19;3612789;39;20147;-67
2023/04/17 10:17:30;;;;;;;26.25;19.60;;;;;;;15.31;56.23;102450.88;3614394;39;20050;-67
2023/04/17 10:20:16;;;;;;;28.15;19.42;;;;;;;15.46;56.54;102452.72;3614724;39;20505;-67
2023/04/17 10:22:43;;;;;;;24.20;18.50;;;;;;;15.60;55.55;102449.22;3615618;39;20127;-68
2023/04/17 10:25:12;;;;;;;25.30;20.27;;;;;;;15.73;55.61;102446.72;3615663;39;20359;-68
2023/04/17 10:27:38;;;;;;;22.83;18.70;;;;;;;15.87;54.96;102445.94;3615818;39;20043;-67
2023/04/17 10:30:09;;;;;;;22.20;19.25;;;;;;;16.16;53.26;102447.78;3614563;39;20111;-68
2023/04/17 10:32:35;;;;;;;27.90;19.65;;;;;;;16.24;54.76;102445.50;3619312;39;20060;-68
2023/04/17 10:35:18;;;;;;;25.10;19.52;;;;;;;16.10;53.90;102455.41;3614463;39;20081;-68
2023/04/17 10:37:49;;;;;;;24.13;18.48;;;;;;;15.94;53.93;102448.19;3618640;39;20078;-68
2023/04/17 10:40:35;;;;;;;25.60;19.58;;;;;;;15.38;53.43;102378.22;3616842;39;20053;-68
2023/04/17 10:43:14;;;;;;;24.63;19.15;;;;;;;15.88;53.44;102443.09;3615305;39;20147;-67
2023/04/17 10:46:05;;;;;;;23.70;19.85;;;;;;;15.99;53.91;102445.22;3613609;39;20071;-67
2023/04/17 10:48:40;;;;;;;24.45;18.20;;;;;;;16.12;51.40;102442.66;3616922;39;20082;-67
2023/04/17 10:51:23;;;;;;;26.75;17.83;;;;;;;16.38;51.27;102444.66;3610514;39;20051;-67
2023/04/17 10:53:57;;;;;;;20.48;16.10;;;;;;;16.74;49.32;102432.50;3616828;39;20289;-67
2023/04/17 10:56:40;;;;;;;21.38;17.08;;;;;;;17.30;48.34;102429.91;3615813;39;20055;-67
2023/04/17 10:59:08;;;;;;;23.83;17.27;;;;;;;17.49;49.41;102435.03;3615032;39;20336;-68
2023/04/17 11:01:46;;;;;;;22.00;17.45;;;;;;;17.58;48.91;102439.88;3616637;39;20087;-67
2023/04/17 11:04:27;;;;;;;22.25;17.77;;;;;;;17.26;47.87;102431.97;3618930;39;20055;-68
2023/04/17 11:06:54;;;;;;;20.58;17.52;;;;;;;16.67;49.64;102350.56;3618529;39;20062;-67
2023/04/17 11:09:22;;;;;;;21.88;17.25;;;;;;;17.31;48.11;102420.78;3610962;39;20047;-68
2023/04/17 11:11:48;;;;;;;24.27;17.63;;;;;;;17.56;47.35;102436.38;3620468;39;20387;-68
2023/04/17 11:14:17;;;;;;;23.55;18.15;;;;;;;17.90;47.53;102431.44;3617615;39;20055;-67
2023/04/17 11:16:47;;;;;;;23.05;18.00;;;;;;;18.56;46.37;102423.22;3611135;39;20709;-68